createdAt,value
2022-09-14T00:02:52.609Z,7.20
2022-09-14T00:06:54.506Z,8.53
2022-09-14T00:10:56.244Z,6.40
2022-09-14T00:14:57.938Z,7.27
2022-09-14T00:19:06.534Z,6.20
2022-09-14T00:23:08.378Z,8.23
2022-09-14T00:27:10.371Z,6.50
2022-09-14T00:31:12.406Z,8.10
2022-09-14T00:35:14.224Z,7.57
2022-09-14T00:39:17.521Z,6.20
2022-09-14T00:43:19.186Z,6.60
2022-09-14T00:47:20.952Z,7.57
2022-09-14T00:51:22.804Z,7.70
2022-09-14T00:55:24.859Z,7.47
2022-09-14T00:59:28.998Z,7.43
2022-09-14T01:03:30.747Z,7.77
2022-09-14T01:07:45.397Z,6.70
2022-09-14T01:12:14.514Z,7.93
2022-09-14T01:16:31.106Z,7.07
2022-09-14T01:20:38.744Z,8.13
2022-09-14T01:24:48.845Z,8.10
2022-09-14T01:29:38.586Z,8.40
2022-09-14T01:33:46.453Z,7.37
2022-09-14T01:37:51.784Z,6.13
2022-09-14T01:41:53.929Z,6.63
2022-09-14T01:46:11.583Z,6.70
2022-09-14T01:50:20.905Z,6.13
2022-09-14T01:54:45.142Z,7.37
2022-09-14T01:59:02.067Z,5.97
2022-09-14T02:03:26.470Z,5.50
2022-09-14T02:07:34.491Z,6.10
2022-09-14T02:11:43.374Z,6.70
2022-09-14T02:15:51.435Z,7.20
2022-09-14T02:20:06.359Z,7.90
2022-09-14T02:24:08.171Z,6.90
2022-09-14T02:28:09.952Z,8.07
2022-09-14T02:32:39.642Z,7.00
2022-09-14T02:36:50.143Z,5.70
2022-09-14T02:41:13.010Z,8.00
2022-09-14T02:45:26.902Z,6.53
2022-09-14T02:49:41.722Z,6.17
2022-09-14T02:54:17.855Z,6.10
2022-09-14T02:58:19.675Z,7.47
2022-09-14T03:02:21.824Z,8.30
2022-09-14T03:06:24.467Z,6.73
2022-09-14T03:10:26.952Z,9.20
2022-09-14T03:14:28.634Z,7.93
2022-09-14T03:18:30.372Z,8.43
2022-09-14T03:22:32.942Z,10.30
2022-09-14T03:26:38.562Z,8.30
2022-09-14T03:30:40.365Z,7.97
2022-09-14T03:34:42.069Z,8.90
2022-09-14T03:38:52.359Z,8.50
2022-09-14T03:42:54.167Z,8.23
2022-09-14T03:46:56.079Z,8.97
2022-09-14T03:51:01.496Z,7.20
2022-09-14T03:55:04.234Z,8.07
2022-09-14T03:59:08.662Z,8.07
2022-09-14T04:03:10.462Z,6.83
2022-09-14T04:07:12.278Z,6.97
2022-09-14T04:11:16.965Z,7.13
2022-09-14T04:15:18.719Z,6.43
2022-09-14T04:19:20.452Z,7.77
2022-09-14T04:23:22.802Z,6.70
2022-09-14T04:27:24.652Z,8.57
2022-09-14T04:31:26.650Z,7.77
2022-09-14T04:35:28.556Z,6.87
2022-09-14T04:39:30.348Z,8.57
2022-09-14T04:43:32.041Z,8.43
2022-09-14T04:47:33.773Z,8.87
2022-09-14T04:51:36.172Z,7.90
2022-09-14T04:55:38.106Z,9.30
2022-09-14T04:59:39.890Z,10.57
2022-09-14T05:03:42.253Z,11.27
2022-09-14T05:07:44.068Z,7.80
2022-09-14T05:11:46.074Z,9.73
2022-09-14T05:15:47.859Z,7.80
2022-09-14T05:19:49.630Z,10.33
2022-09-14T05:24:00.986Z,10.57
2022-09-14T05:28:03.044Z,9.47
2022-09-14T05:32:05.190Z,8.50
2022-09-14T05:36:08.396Z,7.70
2022-09-14T05:40:11.089Z,9.40
2022-09-14T05:44:12.870Z,9.77
2022-09-14T05:48:14.655Z,10.87
2022-09-14T05:52:16.359Z,13.63
2022-09-14T05:56:18.829Z,14.70
2022-09-14T06:00:21.700Z,9.70
2022-09-14T06:04:23.632Z,8.97
2022-09-14T06:08:25.388Z,9.27
2022-09-14T06:12:28.048Z,15.33
2022-09-14T06:16:29.851Z,13.27
2022-09-14T06:20:31.642Z,7.87
2022-09-14T06:24:33.435Z,7.43
2022-09-14T06:28:35.529Z,8.27
2022-09-14T06:32:37.186Z,9.87
2022-09-14T06:36:38.910Z,10.23
2022-09-14T06:40:51.503Z,8.03
2022-09-14T06:44:53.175Z,10.33
2022-09-14T06:49:04.633Z,9.73
2022-09-14T06:53:06.497Z,8.43
2022-09-14T06:57:08.411Z,8.27
2022-09-14T07:01:17.002Z,8.37
2022-09-14T07:05:20.276Z,10.47
2022-09-14T07:09:22.130Z,10.43
2022-09-14T07:13:23.943Z,10.13
2022-09-14T07:17:25.662Z,7.90
2022-09-14T07:21:27.842Z,9.53
2022-09-14T07:25:29.575Z,10.77
2022-09-14T07:29:31.439Z,10.57
2022-09-14T07:33:33.513Z,9.73
2022-09-14T07:37:35.274Z,11.60
2022-09-14T07:41:37.184Z,8.53
2022-09-14T07:45:39.062Z,10.50
2022-09-14T07:49:40.750Z,10.70
2022-09-14T07:53:43.236Z,17.40
2022-09-14T07:57:56.130Z,11.40
2022-09-14T08:01:58.555Z,10.23
2022-09-14T08:06:02.046Z,10.03
2022-09-14T08:10:04.026Z,11.67
2022-09-14T08:14:11.395Z,16.93
2022-09-14T08:18:14.595Z,14.53
2022-09-14T08:22:16.278Z,11.03
2022-09-14T08:26:20.843Z,39.60
2022-09-14T08:30:25.632Z,17.17
2022-09-14T08:34:27.453Z,15.07
2022-09-14T08:38:29.568Z,24.03
2022-09-14T08:42:31.358Z,13.80
2022-09-14T08:46:39.797Z,11.07
2022-09-14T08:50:41.843Z,18.77
2022-09-14T08:54:44.164Z,12.83
2022-09-14T08:59:00.779Z,14.37
2022-09-14T09:03:29.516Z,13.57
2022-09-14T09:07:55.980Z,17.60
2022-09-14T09:11:57.685Z,15.93
2022-09-14T09:16:02.573Z,25.40
2022-09-14T09:20:26.326Z,15.43
2022-09-14T09:24:43.497Z,15.80
2022-09-14T09:29:01.233Z,15.07
2022-09-14T09:33:03.053Z,15.43
2022-09-14T09:37:04.942Z,15.80
2022-09-14T09:41:12.619Z,17.20
2022-09-14T09:45:14.999Z,16.00
2022-09-14T09:49:38.504Z,17.20
2022-09-14T09:53:55.856Z,16.33
2022-09-14T09:57:57.635Z,16.57
2022-09-14T10:02:23.176Z,15.00
2022-09-14T10:06:24.958Z,13.93
2022-09-14T10:10:35.998Z,14.37
2022-09-14T10:14:37.987Z,15.87
2022-09-14T10:18:49.165Z,14.57
2022-09-14T10:22:51.231Z,15.13
2022-09-14T10:26:53.027Z,16.23
2022-09-14T10:31:15.966Z,14.23
2022-09-14T10:35:17.783Z,15.23
2022-09-14T10:39:38.169Z,14.37
2022-09-14T10:44:05.361Z,13.90
2022-09-14T10:48:46.014Z,14.30
2022-09-14T10:53:29.177Z,13.93
2022-09-14T10:58:04.233Z,16.30
2022-09-14T11:02:47.125Z,15.63
2022-09-14T11:06:51.572Z,17.10
2022-09-14T11:11:22.912Z,15.70
2022-09-14T11:15:49.708Z,15.13
2022-09-14T11:20:22.488Z,16.00
2022-09-14T11:24:26.214Z,19.03
2022-09-14T11:28:41.338Z,17.93
2022-09-14T11:32:51.831Z,16.73
2022-09-14T11:37:01.610Z,19.57
2022-09-14T11:41:18.183Z,18.20
2022-09-14T11:45:34.718Z,19.83
2022-09-14T11:50:07.200Z,20.07
2022-09-14T11:54:19.093Z,17.93
2022-09-14T11:58:25.665Z,17.03
2022-09-14T12:02:30.205Z,21.00
2022-09-14T12:06:31.966Z,16.80
2022-09-14T12:11:06.625Z,18.97
2022-09-14T12:15:24.732Z,17.37
2022-09-14T12:19:27.009Z,18.57
2022-09-14T12:23:37.986Z,19.03
2022-09-14T12:27:41.059Z,18.43
2022-09-14T12:31:48.149Z,18.10
2022-09-14T12:35:49.870Z,17.80
2022-09-14T12:40:24.422Z,20.27
2022-09-14T12:44:38.388Z,18.37
2022-09-14T12:48:49.305Z,17.87
2022-09-14T12:53:21.521Z,18.97
2022-09-14T12:57:55.350Z,22.23
2022-09-14T13:02:51.144Z,19.77
2022-09-14T13:06:53.037Z,20.30
2022-09-14T13:10:54.801Z,20.07
2022-09-14T13:14:59.243Z,21.27
2022-09-14T13:19:03.575Z,20.30
2022-09-14T13:23:39.176Z,20.47
2022-09-14T13:27:41.173Z,20.43
2022-09-14T13:31:44.765Z,19.67
2022-09-14T13:35:50.843Z,22.50
2022-09-14T13:39:54.940Z,21.57
2022-09-14T13:43:57.070Z,22.43
2022-09-14T13:47:58.828Z,20.67
2022-09-14T13:52:49.778Z,23.97
2022-09-14T13:57:27.047Z,23.07
2022-09-14T14:01:29.175Z,21.77
2022-09-14T14:05:42.397Z,18.80
2022-09-14T14:09:53.426Z,19.23
2022-09-14T14:13:55.131Z,19.63
2022-09-14T14:17:59.442Z,18.93
2022-09-14T14:22:28.099Z,16.93
2022-09-14T14:26:30.003Z,16.97
2022-09-14T14:30:40.482Z,15.03
2022-09-14T14:34:46.719Z,15.53
2022-09-14T14:38:49.143Z,14.67
2022-09-14T14:42:51.078Z,16.00
2022-09-14T14:46:52.808Z,15.47
2022-09-14T14:50:55.726Z,14.47
2022-09-14T14:55:01.402Z,15.33
2022-09-14T14:59:21.108Z,13.77
2022-09-14T15:03:23.085Z,13.73
2022-09-14T15:07:28.153Z,12.83
2022-09-14T15:11:32.934Z,14.20
2022-09-14T15:15:34.775Z,12.67
2022-09-14T15:19:36.583Z,10.90
2022-09-14T15:23:38.966Z,12.47
2022-09-14T15:27:41.504Z,13.43
2022-09-14T15:31:46.371Z,15.00
2022-09-14T15:35:58.842Z,14.83
2022-09-14T15:40:04.504Z,14.70
2022-09-14T15:44:08.189Z,14.67
2022-09-14T15:48:17.142Z,13.60
2022-09-14T15:52:21.722Z,12.20
2022-09-14T15:56:23.597Z,11.97
2022-09-14T16:00:29.091Z,13.67
2022-09-14T16:04:40.382Z,16.30
2022-09-14T16:08:42.241Z,15.73
2022-09-14T16:12:44.112Z,13.37
2022-09-14T16:16:48.218Z,13.30
2022-09-14T16:20:49.984Z,14.90
2022-09-14T16:24:51.842Z,13.03
2022-09-14T16:28:59.546Z,13.47
2022-09-14T16:33:03.885Z,15.13
2022-09-14T16:37:06.057Z,15.93
2022-09-14T16:41:19.825Z,14.17
2022-09-14T16:45:21.663Z,15.70
2022-09-14T16:49:27.546Z,18.13
2022-09-14T16:53:37.174Z,14.87
2022-09-14T16:57:44.112Z,17.07
2022-09-14T17:01:49.699Z,12.97
2022-09-14T17:06:03.981Z,14.97
2022-09-14T17:10:06.404Z,13.43
2022-09-14T17:14:09.567Z,12.93
2022-09-14T17:18:11.565Z,12.27
2022-09-14T17:22:14.165Z,15.77
2022-09-14T17:26:19.593Z,14.47
2022-09-14T17:30:23.802Z,12.50
2022-09-14T17:34:25.796Z,13.07
2022-09-14T17:38:29.500Z,12.97
2022-09-14T17:42:34.372Z,12.57
2022-09-14T17:46:41.465Z,11.87
2022-09-14T17:50:49.245Z,11.47
2022-09-14T17:54:52.318Z,12.10
2022-09-14T17:59:13.342Z,10.27
2022-09-14T18:03:18.451Z,12.30
2022-09-14T18:07:20.253Z,11.40
2022-09-14T18:11:24.675Z,10.83
2022-09-14T18:15:27.678Z,11.80
2022-09-14T18:19:29.995Z,9.43
2022-09-14T18:23:40.864Z,10.23
2022-09-14T18:27:42.595Z,9.77
2022-09-14T18:31:44.669Z,10.63
2022-09-14T18:35:46.548Z,10.33
2022-09-14T18:39:48.643Z,9.87
2022-09-14T18:43:54.162Z,11.27
2022-09-14T18:47:58.780Z,9.53
2022-09-14T18:52:03.136Z,10.10
2022-09-14T18:56:14.668Z,12.90
2022-09-14T19:00:19.426Z,10.43
2022-09-14T19:04:21.340Z,8.63
2022-09-14T19:08:23.319Z,9.20
2022-09-14T19:12:25.327Z,9.23
2022-09-14T19:16:27.598Z,7.37
2022-09-14T19:20:48.688Z,7.07
2022-09-14T19:24:51.655Z,6.50
2022-09-14T19:28:53.615Z,7.07
2022-09-14T19:32:58.232Z,6.63
2022-09-14T19:37:02.869Z,8.00
2022-09-14T19:41:05.789Z,7.30
2022-09-14T19:45:08.826Z,8.00
2022-09-14T19:49:23.537Z,8.40
2022-09-14T19:53:37.407Z,8.67
2022-09-14T19:57:42.660Z,7.90
2022-09-14T20:01:50.008Z,7.70
2022-09-14T20:06:26.219Z,8.73
2022-09-14T20:10:28.041Z,9.83
2022-09-14T20:14:32.347Z,7.17
2022-09-14T20:18:34.249Z,7.80
2022-09-14T20:22:36.113Z,8.23
2022-09-14T20:26:38.305Z,8.37
2022-09-14T20:31:06.693Z,9.27
2022-09-14T20:35:09.816Z,10.37
2022-09-14T20:39:13.079Z,10.23
2022-09-14T20:43:18.202Z,10.27
2022-09-14T20:47:19.969Z,8.93
2022-09-14T20:51:25.044Z,10.43
2022-09-14T20:55:30.109Z,9.97
2022-09-14T20:59:32.148Z,10.20
2022-09-14T21:03:34.466Z,7.73
2022-09-14T21:07:36.216Z,7.63
2022-09-14T21:11:38.127Z,7.30
2022-09-14T21:15:40.140Z,7.53
2022-09-14T21:19:42.088Z,6.10
2022-09-14T21:23:44.024Z,5.27
2022-09-14T21:27:45.739Z,4.70
2022-09-14T21:31:48.807Z,5.27
2022-09-14T21:35:50.560Z,4.90
2022-09-14T21:39:53.939Z,4.70
2022-09-14T21:43:56.464Z,4.03
2022-09-14T21:47:58.217Z,3.43
2022-09-14T21:52:00.321Z,3.07
2022-09-14T21:56:05.858Z,2.50
2022-09-14T22:00:09.815Z,2.13
2022-09-14T22:04:21.711Z,2.27
2022-09-14T22:08:23.509Z,2.90
2022-09-14T22:12:25.430Z,2.40
2022-09-14T22:16:28.797Z,3.70
2022-09-14T22:20:30.607Z,3.50
2022-09-14T22:24:38.328Z,3.50
2022-09-14T22:28:40.820Z,3.70
2022-09-14T22:32:42.520Z,3.40
2022-09-14T22:36:44.345Z,3.57
2022-09-14T22:40:46.111Z,4.13
2022-09-14T22:44:48.988Z,5.33
2022-09-14T22:48:51.699Z,5.37
2022-09-14T22:52:53.885Z,4.73
2022-09-14T22:56:55.704Z,4.20
2022-09-14T23:00:57.527Z,4.63
2022-09-14T23:04:59.299Z,5.57
2022-09-14T23:09:01.138Z,4.70
2022-09-14T23:13:02.862Z,5.40
2022-09-14T23:17:04.603Z,5.47
2022-09-14T23:21:07.017Z,3.80
2022-09-14T23:25:09.585Z,4.80
2022-09-14T23:29:16.004Z,4.40
2022-09-14T23:33:17.780Z,4.50
2022-09-14T23:37:19.495Z,5.13
2022-09-14T23:41:22.725Z,5.20
2022-09-14T23:45:24.424Z,9.03
2022-09-14T23:49:26.261Z,4.40
2022-09-14T23:53:28.264Z,7.40
2022-09-14T23:57:30.184Z,5.63
